Time;durP1;ratioP1;P1;durP2;ratioP2;P2;SDS_P1;SDS_P2;PMS_P1;PMS_P2;Temp;Humidity;BMP_temperature;BMP_pressure;BME280_temperature;BME280_humidity;BME280_pressure;Samples;Min_cycle;Max_cycle;Signal;HPM_P1;HPM_P2
2021/10/13 00:00:23;;;;;;;20.10;11.50;;;;;;;19.02;33.94;99007.31;1696279;82;21999;-41
2021/10/13 00:02:50;;;;;;;19.02;11.12;;;;;;;18.99;34.01;99007.55;1689978;83;21026;-39
2021/10/13 00:05:16;;;;;;;15.48;10.88;;;;;;;18.98;34.09;99013.83;1688154;83;21452;-39
2021/10/13 00:07:43;;;;;;;20.27;11.80;;;;;;;18.96;34.16;99013.11;1690758;83;20991;-40
2021/10/13 00:10:09;;;;;;;18.87;12.20;;;;;;;18.94;34.24;99010.06;1697920;82;21569;-40
2021/10/13 00:12:36;;;;;;;20.77;12.10;;;;;;;18.94;34.26;99008.73;1681973;83;21028;-41
2021/10/13 00:15:05;;;;;;;20.55;11.90;;;;;;;18.91;34.29;98998.33;1659269;84;21230;-40
2021/10/13 00:17:31;;;;;;;20.85;12.95;;;;;;;18.88;34.42;98991.91;1661150;84;21060;-40
2021/10/13 00:19:58;;;;;;;24.37;12.15;;;;;;;18.90;34.45;98991.29;1699090;82;21023;-40
2021/10/13 00:22:24;;;;;;;19.85;12.00;;;;;;;18.93;34.42;98997.72;1663357;84;21991;-40
2021/10/13 00:24:50;;;;;;;20.97;11.60;;;;;;;18.92;34.45;99000.01;1698616;82;21000;-40
2021/10/13 00:27:17;;;;;;;18.70;11.68;;;;;;;18.92;34.45;99005.34;1688148;82;22077;-39
2021/10/13 00:29:43;;;;;;;16.23;11.35;;;;;;;18.87;34.53;98998.19;1686477;83;20980;-40
2021/10/13 00:32:09;;;;;;;18.07;12.00;;;;;;;18.82;34.63;98997.66;1692522;83;21480;-40
2021/10/13 00:34:36;;;;;;;18.15;11.95;;;;;;;18.83;34.63;98989.20;1700536;83;21011;-40
2021/10/13 00:37:02;;;;;;;16.70;11.60;;;;;;;18.82;34.68;98991.00;1659143;84;20924;-40
2021/10/13 00:39:29;;;;;;;17.60;11.60;;;;;;;18.83;34.69;98991.87;1698164;82;21122;-39
2021/10/13 00:41:55;;;;;;;18.42;12.00;;;;;;;18.82;34.71;98997.66;1662715;84;21589;-40
2021/10/13 00:44:22;;;;;;;16.20;10.75;;;;;;;18.83;34.73;99006.06;1681218;84;21589;-40
2021/10/13 00:46:48;;;;;;;18.50;11.65;;;;;;;18.82;34.74;99000.33;1696368;82;21158;-39
2021/10/13 00:49:15;;;;;;;13.60;10.82;;;;;;;18.80;34.76;99006.27;1697193;82;21066;-40
2021/10/13 00:51:41;;;;;;;16.60;11.38;;;;;;;18.75;34.82;99003.95;1656475;82;22353;-40
2021/10/13 00:54:09;;;;;;;19.82;11.35;;;;;;;18.70;34.89;99000.78;1690263;82;21534;-40
2021/10/13 00:56:35;;;;;;;17.57;10.93;;;;;;;18.66;34.97;98994.47;1651590;84;20952;-40
2021/10/13 00:59:01;;;;;;;18.75;10.88;;;;;;;18.65;35.02;98999.45;1692925;82;21000;-40
2021/10/13 01:02:03;;;;;;;15.45;10.60;;;;;;;18.63;35.04;99001.39;1693342;82;20975;-39
2021/10/13 01:04:56;;;;;;;15.93;10.45;;;;;;;18.58;35.13;99000.41;1678575;83;20995;-39
2021/10/13 01:07:46;;;;;;;16.48;10.40;;;;;;;18.52;35.20;99004.85;1668901;84;21149;-40
2021/10/13 01:10:33;;;;;;;18.67;10.30;;;;;;;18.45;35.33;99001.80;1688832;82;21097;-39
2021/10/13 01:13:26;;;;;;;17.35;10.68;;;;;;;18.41;35.45;98994.16;1677437;84;21197;-39
2021/10/13 01:16:43;;;;;;;17.10;10.55;;;;;;;18.42;35.46;98988.71;1687012;83;21597;-39
2021/10/13 01:20:02;;;;;;;18.12;11.08;;;;;;;18.46;35.46;98994.19;1688032;83;22013;-39
2021/10/13 01:22:49;;;;;;;16.20;10.40;;;;;;;18.47;35.43;98993.70;1683762;83;20999;-39
2021/10/13 01:25:46;;;;;;;15.15;9.85;;;;;;;18.49;35.45;98993.09;1680765;83;20963;-40
2021/10/13 01:28:21;;;;;;;17.95;9.70;;;;;;;18.46;35.51;98994.19;1637504;85;21059;-40
2021/10/13 01:31:01;;;;;;;20.20;11.18;;;;;;;18.49;35.52;98991.77;1638350;85;26957;-40
2021/10/13 01:33:43;;;;;;;15.50;10.65;;;;;;;18.50;35.47;98991.65;1681976;83;22826;-42
2021/10/13 01:36:12;;;;;;;14.78;10.10;;;;;;;18.49;35.45;98991.30;1656473;84;21354;-41
2021/10/13 01:38:44;;;;;;;19.27;11.28;;;;;;;18.46;35.44;98991.53;1664614;83;21629;-41
2021/10/13 01:41:11;;;;;;;19.50;10.48;;;;;;;18.46;35.48;98992.86;1691655;82;21181;-40
2021/10/13 01:43:44;;;;;;;15.45;10.60;;;;;;;18.50;35.42;98996.13;1691853;83;21573;-41
2021/10/13 01:46:10;;;;;;;15.45;10.78;;;;;;;18.52;35.39;98996.37;1662964;83;21736;-40
2021/10/13 01:48:37;;;;;;;16.87;10.25;;;;;;;18.52;35.33;99000.36;1668527;83;21028;-40
2021/10/13 01:51:03;;;;;;;16.52;10.05;;;;;;;18.51;35.35;99007.17;1657275;84;21732;-41
2021/10/13 01:53:30;;;;;;;15.08;9.78;;;;;;;18.48;35.33;99004.73;1666841;83;21090;-40
2021/10/13 01:55:57;;;;;;;14.95;10.40;;;;;;;18.42;35.42;99000.70;1655681;83;21596;-39
2021/10/13 01:58:25;;;;;;;16.77;10.63;;;;;;;18.41;35.44;99000.34;1690578;83;21106;-38
2021/10/13 02:00:52;;;;;;;16.90;10.23;;;;;;;18.38;35.44;99000.58;1682803;82;21091;-40
2021/10/13 02:03:21;;;;;;;15.95;9.83;;;;;;;18.30;35.54;99003.80;1660725;84;21188;-40
2021/10/13 02:05:55;;;;;;;14.95;10.23;;;;;;;18.23;35.70;99008.39;1686463;82;21157;-39
2021/10/13 02:08:23;;;;;;;18.27;10.90;;;;;;;18.17;35.85;99013.66;1685040;83;21006;-40
2021/10/13 02:10:50;;;;;;;18.82;10.85;;;;;;;18.14;35.92;99014.76;1658644;83;21842;-39
2021/10/13 02:13:18;;;;;;;14.80;10.50;;;;;;;18.14;35.94;99017.42;1677586;83;21048;-39
2021/10/13 02:15:46;;;;;;;16.35;10.45;;;;;;;18.10;36.00;99014.59;1662874;82;21106;-40
2021/10/13 02:18:20;;;;;;;17.35;10.53;;;;;;;18.08;36.05;99016.53;1660550;84;21146;-40
2021/10/13 02:20:47;;;;;;;15.38;10.58;;;;;;;18.07;36.10;99018.84;1687554;82;21067;-39
2021/10/13 02:23:14;;;;;;;19.85;11.00;;;;;;;18.06;36.17;99023.78;1687565;82;22025;-39
2021/10/13 02:25:41;;;;;;;19.20;10.98;;;;;;;18.08;36.17;99033.83;1700916;82;21043;-40
2021/10/13 02:28:11;;;;;;;17.60;11.38;;;;;;;18.07;36.17;99029.49;1698830;82;21075;-39
2021/10/13 02:30:38;;;;;;;18.50;11.40;;;;;;;18.05;36.19;99030.55;1691848;82;21624;-40
2021/10/13 02:33:07;;;;;;;17.77;11.70;;;;;;;18.02;36.26;99040.93;1689006;82;21548;-39
2021/10/13 02:35:33;;;;;;;18.92;11.43;;;;;;;17.99;36.32;99037.19;1685591;84;21168;-40
2021/10/13 02:37:59;;;;;;;14.45;10.98;;;;;;;17.98;36.31;99031.48;1663521;84;21036;-40
2021/10/13 02:40:26;;;;;;;19.15;11.43;;;;;;;17.93;36.34;99037.62;1697052;82;21074;-40
2021/10/13 02:42:53;;;;;;;20.00;11.68;;;;;;;17.86;36.48;99031.02;1698525;83;21088;-39
2021/10/13 02:45:19;;;;;;;20.50;12.13;;;;;;;17.77;36.62;99037.38;1700858;82;21677;-40
2021/10/13 02:47:58;;;;;;;18.00;11.35;;;;;;;17.68;36.74;99037.18;1656292;84;21075;-40
2021/10/13 02:50:29;;;;;;;18.60;11.05;;;;;;;17.59;36.94;99032.89;1659205;84;22262;-39
2021/10/13 02:53:04;;;;;;;18.85;11.45;;;;;;;17.53;37.16;99036.46;1694921;82;21010;-38
2021/10/13 02:55:35;;;;;;;15.55;10.80;;;;;;;17.50;37.28;99040.66;1689926;82;22220;-39
2021/10/13 02:58:29;;;;;;;18.50;11.08;;;;;;;17.46;37.37;99033.39;1697373;82;21228;-39
2021/10/13 03:00:56;;;;;;;16.70;11.97;;;;;;;17.44;37.43;99032.16;1695068;82;21138;-39
2021/10/13 03:03:43;;;;;;;21.48;11.57;;;;;;;17.45;37.46;99035.20;1690746;82;21004;-38
2021/10/13 03:06:09;;;;;;;17.57;11.95;;;;;;;17.42;37.53;99035.41;1680915;82;21128;-39
2021/10/13 03:08:38;;;;;;;15.65;11.12;;;;;;;17.38;37.60;99039.27;1685021;84;21145;-38
2021/10/13 03:11:05;;;;;;;19.17;11.63;;;;;;;17.34;37.71;99040.42;1689878;82;21119;-39
2021/10/13 03:13:34;;;;;;;20.23;12.25;;;;;;;17.35;37.77;99035.48;1624469;84;21132;-40
2021/10/13 03:16:04;;;;;;;18.92;11.88;;;;;;;17.41;37.70;99033.70;1685712;82;21110;-40
2021/10/13 03:18:31;;;;;;;22.85;12.90;;;;;;;17.50;37.59;99035.34;1656889;84;21087;-39
2021/10/13 03:20:57;;;;;;;21.02;12.18;;;;;;;17.58;37.42;99040.97;1663906;84;21866;-39
2021/10/13 03:23:24;;;;;;;20.65;12.10;;;;;;;17.62;37.31;99043.80;1683395;82;21151;-38
2021/10/13 03:25:51;;;;;;;18.10;11.97;;;;;;;17.63;37.27;99044.16;1692734;82;21804;-39
2021/10/13 03:28:18;;;;;;;17.02;12.50;;;;;;;17.65;37.18;99043.55;1708893;81;21067;-38
2021/10/13 03:30:45;;;;;;;17.15;12.05;;;;;;;17.66;37.16;99043.09;1669293;84;21098;-39
2021/10/13 03:33:12;;;;;;;19.90;12.68;;;;;;;17.67;37.10;99041.66;1692909;83;21590;-39
2021/10/13 03:35:38;;;;;;;19.35;12.28;;;;;;;17.69;37.04;99049.05;1693353;82;21064;-39
2021/10/13 03:38:05;;;;;;;19.73;12.73;;;;;;;17.72;36.95;99055.48;1684315;84;21085;-39
2021/10/13 03:40:33;;;;;;;20.27;13.70;;;;;;;17.73;36.85;99052.33;1659983;83;21099;-39
2021/10/13 03:43:00;;;;;;;20.23;13.43;;;;;;;17.68;36.83;99056.64;1657330;83;20998;-39
2021/10/13 03:45:26;;;;;;;20.17;14.65;;;;;;;17.62;36.82;99049.13;1653089;83;21019;-38
2021/10/13 03:47:53;;;;;;;17.67;12.88;;;;;;;17.54;36.91;99051.47;1683349;83;21631;-38
2021/10/13 03:50:20;;;;;;;22.22;13.62;;;;;;;17.48;37.01;99048.75;1682674;83;21104;-39
2021/10/13 03:52:47;;;;;;;19.25;13.30;;;;;;;17.44;37.08;99057.42;1683661;83;21062;-39
2021/10/13 03:55:15;;;;;;;18.10;12.93;;;;;;;17.43;37.11;99053.55;1681925;83;22291;-39
2021/10/13 03:57:42;;;;;;;17.92;12.85;;;;;;;17.43;37.13;99048.22;1659444;83;21068;-39
2021/10/13 04:00:12;;;;;;;26.07;14.35;;;;;;;17.42;37.16;99041.22;1692589;83;21083;-40
2021/10/13 04:02:40;;;;;;;17.32;12.65;;;;;;;17.39;37.20;99044.94;1660590;84;21152;-40
2021/10/13 04:05:07;;;;;;;19.95;12.40;;;;;;;17.36;37.26;99038.50;1657328;84;20929;-39
2021/10/13 04:07:34;;;;;;;19.17;12.93;;;;;;;17.37;37.26;99050.00;1693328;83;20975;-39
2021/10/13 04:10:00;;;;;;;19.85;13.13;;;;;;;17.37;37.29;99046.02;1684322;83;21044;-39
2021/10/13 04:12:29;;;;;;;20.95;13.32;;;;;;;17.34;37.31;99041.75;1658588;83;21893;-40
2021/10/13 04:14:55;;;;;;;21.68;12.53;;;;;;;17.33;37.31;99041.40;1683088;82;21176;-40
2021/10/13 04:17:21;;;;;;;20.55;12.95;;;;;;;17.34;37.36;99044.41;1676256;83;21089;-40
2021/10/13 04:19:49;;;;;;;23.07;12.90;;;;;;;17.39;37.35;99040.95;1673915;84;21046;-38
2021/10/13 04:22:15;;;;;;;21.57;12.85;;;;;;;17.49;37.23;99038.98;1675445;83;21094;-39
2021/10/13 04:24:41;;;;;;;20.55;12.28;;;;;;;17.59;37.07;99040.86;1685422;83;20999;-39
2021/10/13 04:27:08;;;;;;;21.30;12.45;;;;;;;17.66;36.95;99030.64;1671100;84;21145;-38
2021/10/13 04:29:34;;;;;;;21.48;13.10;;;;;;;17.71;36.87;99040.95;1679067;83;21018;-38
2021/10/13 04:32:01;;;;;;;16.97;12.00;;;;;;;17.74;36.80;99040.74;1646922;83;21036;-41
2021/10/13 04:34:27;;;;;;;21.25;14.03;;;;;;;17.79;36.75;99042.59;1683309;83;21034;-39
2021/10/13 04:36:53;;;;;;;39.88;12.07;;;;;;;17.90;36.63;99043.16;1680854;83;21565;-38
2021/10/13 04:39:20;;;;;;;20.45;12.03;;;;;;;17.98;36.72;99044.80;1692523;83;21108;-36
2021/10/13 04:41:46;;;;;;;15.18;11.15;;;;;;;18.06;37.56;99051.73;1684419;83;21447;-37
2021/10/13 04:44:12;;;;;;;16.25;10.80;;;;;;;18.18;37.79;99059.31;1656344;83;21125;-37
2021/10/13 04:46:39;;;;;;;14.53;10.10;;;;;;;18.33;38.07;99050.67;1654088;85;21212;-37
2021/10/13 04:49:05;;;;;;;14.65;9.95;;;;;;;18.51;38.16;99059.95;1682519;83;21140;-37
2021/10/13 04:51:32;;;;;;;13.25;9.45;;;;;;;18.68;38.11;99051.19;1691276;84;21587;-36
2021/10/13 04:53:58;;;;;;;17.95;10.53;;;;;;;18.84;37.99;99049.06;1688686;83;21063;-36
2021/10/13 04:56:24;;;;;;;12.63;9.90;;;;;;;18.98;37.91;99047.16;1690571;83;21756;-37
2021/10/13 04:58:51;;;;;;;12.40;9.30;;;;;;;19.11;37.85;99063.91;1656853;84;21137;-38
2021/10/13 05:01:17;;;;;;;13.18;9.08;;;;;;;19.23;37.78;99072.31;1688675;83;21073;-37
2021/10/13 05:03:44;;;;;;;15.10;9.93;;;;;;;19.34;37.66;99064.80;1672315;84;21161;-38
2021/10/13 05:06:10;;;;;;;15.25;10.00;;;;;;;19.46;37.53;99072.32;1674732;83;21603;-38
2021/10/13 05:08:37;;;;;;;12.68;9.30;;;;;;;19.54;37.46;99076.57;1682839;84;21012;-37
2021/10/13 05:11:04;;;;;;;15.78;9.98;;;;;;;19.64;37.44;99078.03;1650149;84;21117;-37
2021/10/13 05:13:31;;;;;;;12.78;8.88;;;;;;;19.71;37.35;99077.06;1665419;83;21114;-37
2021/10/13 05:15:58;;;;;;;15.00;9.88;;;;;;;19.79;37.21;99072.84;1683657;83;21166;-37
2021/10/13 05:18:25;;;;;;;14.70;9.80;;;;;;;19.86;37.08;99075.86;1674534;83;21098;-38
2021/10/13 05:20:51;;;;;;;13.50;9.65;;;;;;;19.92;36.95;99074.51;1666764;83;21087;-38
2021/10/13 05:23:17;;;;;;;10.65;8.60;;;;;;;19.97;36.92;99073.19;1653176;84;21102;-39
2021/10/13 05:25:44;;;;;;;11.22;9.25;;;;;;;20.03;37.12;99070.00;1633960;84;20997;-37
2021/10/13 05:28:10;;;;;;;12.60;9.60;;;;;;;20.13;37.12;99079.95;1657843;84;21112;-38
2021/10/13 05:30:36;;;;;;;10.93;8.53;;;;;;;20.19;37.12;99080.77;1685066;82;21008;-39
2021/10/13 05:33:03;;;;;;;10.90;8.63;;;;;;;20.28;37.15;99084.53;1675227;83;21849;-39
2021/10/13 05:35:29;;;;;;;15.15;8.60;;;;;;;20.37;37.33;99081.93;1672629;84;21019;-38
2021/10/13 05:37:56;;;;;;;10.82;8.95;;;;;;;20.46;37.44;99074.13;1677844;83;22007;-38
2021/10/13 05:40:22;;;;;;;17.52;9.05;;;;;;;20.49;37.46;99081.41;1683095;82;21123;-39
2021/10/13 05:42:49;;;;;;;12.85;8.93;;;;;;;20.53;37.34;99086.03;1684390;82;21546;-39
2021/10/13 05:45:15;;;;;;;13.00;8.60;;;;;;;20.57;37.26;99094.14;1687527;82;21067;-38
2021/10/13 05:47:41;;;;;;;12.37;8.63;;;;;;;20.61;37.25;99095.61;1674349;83;21469;-38
2021/10/13 05:50:08;;;;;;;12.03;8.63;;;;;;;20.64;37.21;99098.03;1667774;83;21107;-38
2021/10/13 05:52:34;;;;;;;14.25;8.55;;;;;;;20.66;37.27;99096.10;1652156;84;21127;-38
2021/10/13 05:55:01;;;;;;;12.10;9.23;;;;;;;20.67;37.27;99100.45;1651651;84;21140;-38
2021/10/13 05:57:27;;;;;;;11.28;8.53;;;;;;;20.68;37.35;99096.81;1635970;86;21072;-39
2021/10/13 05:59:59;;;;;;;10.68;9.10;;;;;;;20.70;37.53;99092.19;1641269;85;21115;-38
2021/10/13 06:02:26;;;;;;;13.30;9.18;;;;;;;20.74;37.65;99094.95;1666267;84;21075;-39
2021/10/13 06:04:52;;;;;;;13.72;9.98;;;;;;;20.80;37.75;99103.46;1663256;84;21429;-38
2021/10/13 06:07:19;;;;;;;14.15;10.95;;;;;;;20.85;37.91;99105.26;1693896;82;21090;-38
2021/10/13 06:09:47;;;;;;;33.45;20.57;;;;;;;20.91;37.87;99106.05;1688122;82;21094;-38
2021/10/13 06:12:14;;;;;;;24.23;16.60;;;;;;;20.95;37.78;99100.83;1627280;85;21174;-38
2021/10/13 06:14:40;;;;;;;21.87;15.43;;;;;;;20.94;37.12;99113.33;1666708;84;21046;-38
2021/10/13 06:17:06;;;;;;;25.30;15.83;;;;;;;20.84;36.56;99112.91;1677445;83;21219;-38
2021/10/13 06:19:33;;;;;;;23.67;13.88;;;;;;;20.70;36.51;99108.72;1690983;83;21146;-39
2021/10/13 06:21:59;;;;;;;21.10;14.23;;;;;;;20.56;36.37;99108.47;1684644;82;21076;-39
2021/10/13 06:24:26;;;;;;;21.17;13.18;;;;;;;20.40;36.53;99103.06;1653516;83;21133;-37
2021/10/13 06:26:52;;;;;;;23.55;14.30;;;;;;;20.27;36.74;99106.38;1689830;83;21121;-37
2021/10/13 06:29:19;;;;;;;17.20;13.32;;;;;;;20.15;36.72;99105.55;1682492;83;21193;-38
2021/10/13 06:31:45;;;;;;;21.00;14.70;;;;;;;20.00;37.38;99108.13;1661449;83;21536;-38
2021/10/13 06:34:11;;;;;;;18.87;13.48;;;;;;;19.96;37.42;99113.36;1682417;83;21062;-38
2021/10/13 06:36:39;;;;;;;20.40;13.58;;;;;;;19.92;37.30;99115.43;1687677;83;21062;-37
2021/10/13 06:39:05;;;;;;;21.07;12.82;;;;;;;19.88;37.79;99120.63;1654091;84;21087;-38
2021/10/13 06:41:33;;;;;;;20.05;12.43;;;;;;;19.86;37.67;99122.59;1681444;83;21242;-39
2021/10/13 06:44:00;;;;;;;17.62;12.15;;;;;;;19.86;37.53;99124.76;1680084;83;21234;-38
2021/10/13 06:46:27;;;;;;;15.35;12.03;;;;;;;19.91;37.50;99125.73;1696547;82;21106;-38
2021/10/13 06:48:53;;;;;;;18.30;12.00;;;;;;;19.93;36.58;99126.95;1651606;83;21606;-38
2021/10/13 06:51:20;;;;;;;21.25;11.90;;;;;;;19.88;36.41;99129.98;1694803;82;21063;-37
2021/10/13 06:53:48;;;;;;;16.17;11.18;;;;;;;19.77;36.43;99124.63;1660424;83;21073;-38
2021/10/13 06:56:14;;;;;;;17.75;11.78;;;;;;;19.73;36.38;99124.49;1656114;84;22145;-37
2021/10/13 06:58:42;;;;;;;17.50;11.12;;;;;;;19.67;36.36;99124.01;1685015;83;21079;-38
2021/10/13 07:01:09;;;;;;;14.60;10.72;;;;;;;19.63;36.47;99126.53;1688562;83;21059;-37
2021/10/13 07:03:35;;;;;;;17.62;11.30;;;;;;;19.68;36.61;99122.18;1654372;83;21105;-38
2021/10/13 07:06:02;;;;;;;27.02;17.50;;;;;;;19.77;36.32;99127.30;1692066;83;21585;-38
2021/10/13 07:08:30;;;;;;;20.17;13.78;;;;;;;19.83;36.39;99137.50;1685537;83;21662;-37
2021/10/13 07:10:58;;;;;;;22.22;13.48;;;;;;;19.84;36.21;99133.88;1694912;82;21090;-38
2021/10/13 07:13:25;;;;;;;19.98;11.68;;;;;;;19.83;36.08;99134.84;1663129;83;21194;-37
2021/10/13 07:15:51;;;;;;;18.30;12.18;;;;;;;19.81;36.02;99136.29;1670130;83;21181;-37
2021/10/13 07:18:18;;;;;;;17.95;12.68;;;;;;;19.79;35.77;99126.72;1639660;85;21170;-38
2021/10/13 07:20:45;;;;;;;14.95;12.13;;;;;;;19.77;35.69;99120.62;1638076;84;21127;-38
2021/10/13 07:23:11;;;;;;;16.95;11.78;;;;;;;19.75;35.58;99118.58;1669433;84;21534;-38
2021/10/13 07:25:38;;;;;;;16.95;11.80;;;;;;;19.65;35.55;99120.62;1688327;82;21115;-38
2021/10/13 07:28:04;;;;;;;17.42;11.95;;;;;;;19.56;35.73;99132.00;1683923;83;21369;-38
2021/10/13 07:30:32;;;;;;;18.02;11.78;;;;;;;19.50;35.63;99129.80;1649973;84;21129;-37
2021/10/13 07:32:59;;;;;;;16.87;11.78;;;;;;;19.37;35.83;99125.08;1678120;84;21557;-38
2021/10/13 07:35:27;;;;;;;19.82;11.70;;;;;;;19.28;35.94;99130.15;1680495;82;21098;-38
2021/10/13 07:37:55;;;;;;;14.65;10.80;;;;;;;19.21;36.33;99132.90;1689293;82;21548;-37
2021/10/13 07:40:23;;;;;;;21.42;11.53;;;;;;;19.20;37.04;99143.22;1697199;82;21066;-38
2021/10/13 07:42:49;;;;;;;18.37;10.82;;;;;;;19.30;37.64;99138.04;1698703;82;21175;-37
2021/10/13 07:45:18;;;;;;;15.63;10.63;;;;;;;19.45;37.85;99139.98;1660975;84;21192;-37
2021/10/13 07:47:46;;;;;;;16.32;10.00;;;;;;;19.62;37.84;99142.20;1703586;83;21041;-37
2021/10/13 07:50:13;;;;;;;18.82;10.53;;;;;;;19.81;37.78;99138.95;1689349;82;21437;-37
2021/10/13 07:52:39;;;;;;;14.75;10.32;;;;;;;19.97;37.67;99131.93;1655180;84;21103;-38
2021/10/13 07:55:06;;;;;;;13.65;9.58;;;;;;;20.14;37.49;99129.70;1691813;82;21150;-38
2021/10/13 07:57:33;;;;;;;15.72;10.50;;;;;;;20.28;37.35;99125.94;1691944;82;21066;-37
2021/10/13 07:59:59;;;;;;;14.68;10.90;;;;;;;20.37;36.81;99127.35;1689056;82;21117;-37
2021/10/13 08:02:26;;;;;;;18.77;10.28;;;;;;;20.38;36.31;99125.05;1685421;83;21128;-38
2021/10/13 08:04:54;;;;;;;19.73;10.23;;;;;;;20.37;36.52;99131.36;1696008;83;20999;-37
2021/10/13 08:07:20;;;;;;;12.47;9.43;;;;;;;20.38;36.66;99126.39;1659006;84;21178;-37
2021/10/13 08:09:46;;;;;;;22.35;9.93;;;;;;;20.45;36.79;99133.92;1687753;83;21071;-37
2021/10/13 08:12:12;;;;;;;13.28;9.65;;;;;;;20.53;36.75;99136.81;1654372;84;21067;-37
2021/10/13 08:14:39;;;;;;;25.32;10.28;;;;;;;20.62;36.75;99138.71;1683829;83;21722;-38
2021/10/13 08:17:09;;;;;;;11.95;9.00;;;;;;;20.72;36.74;99137.01;1646189;85;21440;-37
2021/10/13 08:19:34;;;;;;;13.30;9.20;;;;;;;20.82;36.64;99136.26;1666390;82;21245;-38
2021/10/13 08:22:01;;;;;;;13.80;9.58;;;;;;;20.90;36.56;99129.78;1681799;83;21519;-37
2021/10/13 08:24:28;;;;;;;14.45;9.83;;;;;;;20.97;36.52;99129.63;1683473;83;21062;-37
2021/10/13 08:26:54;;;;;;;11.20;9.33;;;;;;;21.05;36.48;99135.67;1689178;83;21050;-38
2021/10/13 08:29:20;;;;;;;11.73;8.78;;;;;;;21.10;36.42;99130.28;1681819;83;21060;-37
2021/10/13 08:31:47;;;;;;;15.35;8.75;;;;;;;21.17;36.36;99133.79;1654621;84;21078;-39
2021/10/13 08:34:13;;;;;;;15.13;8.70;;;;;;;21.23;36.29;99130.11;1658982;83;21669;-38
2021/10/13 08:36:40;;;;;;;13.15;8.40;;;;;;;21.28;36.20;99127.02;1671267;83;21066;-38
2021/10/13 08:39:06;;;;;;;11.75;8.53;;;;;;;21.32;36.15;99123.11;1663369;84;21775;-37
2021/10/13 08:41:32;;;;;;;16.00;9.18;;;;;;;21.36;36.11;99124.53;1691369;82;21051;-38
2021/10/13 08:43:59;;;;;;;10.45;9.05;;;;;;;21.41;36.05;99128.16;1667353;83;21148;-37
2021/10/13 08:46:25;;;;;;;11.57;8.68;;;;;;;21.47;36.01;99126.34;1690967;83;21076;-37
2021/10/13 08:48:52;;;;;;;9.78;8.45;;;;;;;21.52;35.92;99124.11;1647237;85;21372;-37
2021/10/13 09:11:11;;;;;;;13.72;7.75;;;;;;;22.21;35.25;99128.75;1732099;80;22704;-38
2021/10/13 09:13:39;;;;;;;11.05;8.23;;;;;;;22.30;34.94;99132.96;1692812;82;21077;-38
2021/10/13 09:16:06;;;;;;;11.25;7.90;;;;;;;22.32;34.85;99135.84;1720336;82;21279;-38
2021/10/13 09:18:32;;;;;;;12.95;8.23;;;;;;;22.35;34.71;99145.45;1738208;81;20963;-38
2021/10/13 09:21:00;;;;;;;10.40;8.28;;;;;;;22.35;34.71;99134.73;1737086;82;20979;-38
2021/10/13 09:23:31;;;;;;;9.03;8.13;;;;;;;22.35;34.70;99138.75;1753635;81;21003;-38
2021/10/13 09:26:04;;;;;;;12.63;8.28;;;;;;;22.36;34.70;99139.09;1734868;82;21569;-37
2021/10/13 09:28:32;;;;;;;15.60;8.60;;;;;;;22.34;34.78;99133.03;1743754;81;21101;-37
2021/10/13 09:31:17;;;;;;;18.05;8.03;;;;;;;22.32;34.65;99143.88;1716642;81;21508;-37
2021/10/13 09:34:01;;;;;;;15.48;9.03;;;;;;;22.29;34.68;99144.16;1704350;82;20999;-38
2021/10/13 09:36:36;;;;;;;14.25;7.97;;;;;;;22.24;34.61;99147.23;1722286;82;21145;-39
2021/10/13 09:39:13;;;;;;;10.28;8.38;;;;;;;22.19;34.76;99144.12;1723226;82;21579;-38
2021/10/13 09:42:08;;;;;;;15.10;9.00;;;;;;;22.16;34.78;99140.37;1731351;82;21188;-38
2021/10/13 09:44:43;;;;;;;11.40;7.62;;;;;;;22.12;34.67;99144.28;1705146;82;21067;-38
2021/10/13 09:47:13;;;;;;;12.03;7.83;;;;;;;22.07;34.92;99142.51;1719435;82;21572;-40
2021/10/13 09:49:45;;;;;;;11.43;8.43;;;;;;;22.03;35.10;99143.77;1732491;81;21194;-39
2021/10/13 09:52:19;;;;;;;10.95;7.90;;;;;;;22.03;35.21;99140.59;1728211;82;21046;-39
2021/10/13 09:54:48;;;;;;;10.72;7.67;;;;;;;22.01;35.22;99136.38;1710592;82;22204;-39
2021/10/13 09:57:17;;;;;;;10.93;8.45;;;;;;;22.00;35.29;99139.52;1701702;82;22393;-39
2021/10/13 10:00:13;;;;;;;10.32;8.30;;;;;;;22.01;35.35;99145.75;1720411;82;21087;-39
2021/10/13 10:02:56;;;;;;;11.12;8.40;;;;;;;22.01;35.39;99140.39;1727712;82;21069;-39
2021/10/13 10:05:34;;;;;;;11.08;8.33;;;;;;;22.00;35.21;99142.20;1715140;82;21575;-39
2021/10/13 10:08:08;;;;;;;11.33;8.13;;;;;;;22.01;35.12;99143.07;1736146;81;21639;-39
2021/10/13 10:10:36;;;;;;;9.93;7.97;;;;;;;21.99;35.12;99139.19;1697944;83;22080;-39
2021/10/13 10:13:09;;;;;;;11.63;8.30;;;;;;;21.99;34.98;99139.66;1721383;82;21131;-39
2021/10/13 10:15:45;;;;;;;17.32;10.10;;;;;;;21.99;34.94;99138.31;1733325;82;21659;-39
2021/10/13 10:18:31;;;;;;;17.67;11.80;;;;;;;21.96;34.00;99138.11;1713597;81;21082;-39
2021/10/13 10:21:20;;;;;;;13.93;11.28;;;;;;;21.80;33.64;99144.45;1725766;82;21454;-37
2021/10/13 10:23:51;;;;;;;16.77;11.85;;;;;;;21.55;33.17;99149.75;1711940;82;21040;-37
2021/10/13 10:26:30;;;;;;;19.02;12.40;;;;;;;21.15;33.40;99142.78;1703440;82;21058;-37
2021/10/13 10:29:12;;;;;;;20.60;12.07;;;;;;;20.84;34.24;99141.82;1723847;82;21053;-37
2021/10/13 10:31:41;;;;;;;14.93;10.63;;;;;;;20.50;34.82;99143.73;1706842;82;21130;-37
2021/10/13 10:34:12;;;;;;;15.10;11.18;;;;;;;20.21;35.02;99142.95;1724643;82;21969;-37
2021/10/13 10:36:46;;;;;;;15.48;10.25;;;;;;;19.96;35.03;99143.58;1720054;82;21557;-39
2021/10/13 10:39:15;;;;;;;15.03;10.70;;;;;;;19.73;35.18;99144.52;1721714;82;21069;-39
2021/10/13 10:41:45;;;;;;;12.90;9.95;;;;;;;19.58;35.45;99154.06;1709023;81;21109;-39
2021/10/13 10:44:40;;;;;;;15.38;9.48;;;;;;;19.39;35.13;99152.48;1730162;82;21129;-39
2021/10/13 10:47:09;;;;;;;15.72;9.35;;;;;;;19.20;35.28;99159.22;1720688;82;25740;-38
2021/10/13 10:49:50;;;;;;;14.00;9.70;;;;;;;19.02;35.41;99153.95;1702581;82;21003;-38
2021/10/13 10:52:22;;;;;;;13.68;9.88;;;;;;;18.92;35.49;99162.63;1714706;82;21038;-38
2021/10/13 10:55:08;;;;;;;14.47;9.28;;;;;;;18.85;35.65;99156.06;1712674;81;21065;-38
2021/10/13 10:57:41;;;;;;;14.33;9.35;;;;;;;18.80;35.77;99158.19;1714512;82;21050;-36
2021/10/13 11:00:10;;;;;;;12.63;9.53;;;;;;;18.75;35.79;99155.02;1709179;82;21111;-40
2021/10/13 11:02:36;;;;;;;12.47;9.30;;;;;;;18.74;35.93;99150.64;1703771;82;21063;-38
2021/10/13 11:05:11;;;;;;;15.65;9.53;;;;;;;18.80;35.95;99154.19;1731624;82;21078;-38
2021/10/13 11:07:39;;;;;;;15.50;9.60;;;;;;;18.82;35.88;99153.59;1722756;82;21066;-39
2021/10/13 11:10:13;;;;;;;13.08;8.88;;;;;;;18.83;35.81;99151.34;1712429;82;20967;-39
2021/10/13 11:12:57;;;;;;;10.75;8.43;;;;;;;18.85;36.13;99158.72;1706916;82;21892;-40
2021/10/13 11:15:26;;;;;;;11.83;9.05;;;;;;;18.98;36.45;99145.34;1723371;81;21108;-40
2021/10/13 11:17:52;;;;;;;12.93;8.68;;;;;;;19.17;36.60;99152.78;1730711;81;20983;-40
2021/10/13 11:20:25;;;;;;;17.15;8.75;;;;;;;19.33;36.53;99145.77;1732567;81;21007;-38
2021/10/13 11:22:59;;;;;;;10.23;8.25;;;;;;;19.49;36.41;99146.80;1729693;82;21027;-38
2021/10/13 11:25:26;;;;;;;10.60;8.60;;;;;;;19.62;36.28;99144.88;1733464;82;21160;-40
2021/10/13 11:28:14;;;;;;;12.90;8.25;;;;;;;19.75;36.12;99144.77;1705198;82;21187;-39
2021/10/13 11:30:44;;;;;;;11.75;7.92;;;;;;;19.86;35.96;99141.27;1710993;82;21141;-39
2021/10/13 11:33:20;;;;;;;11.38;8.43;;;;;;;19.95;35.92;99137.86;1733518;82;21240;-38
2021/10/13 11:35:48;;;;;;;9.18;7.67;;;;;;;20.02;35.83;99144.43;1724054;82;21038;-39
2021/10/13 11:38:18;;;;;;;14.28;8.15;;;;;;;20.11;35.77;99140.66;1731186;82;21142;-38
2021/10/13 11:40:45;;;;;;;10.72;8.05;;;;;;;20.17;35.67;99137.48;1723269;82;21062;-38
2021/10/13 11:43:15;;;;;;;10.68;8.10;;;;;;;20.24;35.60;99141.38;1714369;82;21051;-39
2021/10/13 11:45:49;;;;;;;11.70;8.10;;;;;;;20.29;35.57;99138.31;1716701;81;21046;-39
2021/10/13 11:48:32;;;;;;;11.33;7.45;;;;;;;20.34;35.56;99142.33;1697864;82;21177;-38
2021/10/13 11:51:01;;;;;;;10.58;7.40;;;;;;;20.39;35.59;99138.79;1721243;82;22204;-41